Time;durP1;ratioP1;P1;durP2;ratioP2;P2;SDS_P1;SDS_P2;PMS_P1;PMS_P2;Temp;Humidity;BMP_temperature;BMP_pressure;BME280_temperature;BME280_humidity;BME280_pressure;Samples;Min_cycle;Max_cycle;Signal;HPM_P1;HPM_P2
2020/12/25 03:45:26;;;;;;;2.22;1.67;;;8.50;65.70;;;;;;5695416;24;20839;-74
2020/12/25 03:47:52;;;;;;;2.92;2.08;;;8.40;65.70;;;;;;4816981;29;20027;-74
2020/12/25 03:50:18;;;;;;;1.58;1.42;;;8.40;65.70;;;;;;4809380;29;20075;-74
2020/12/25 03:52:43;;;;;;;2.38;1.55;;;8.40;66.10;;;;;;4798928;30;20249;-74
2020/12/25 03:55:09;;;;;;;2.72;1.75;;;8.50;65.90;;;;;;4797611;30;20049;-73
2020/12/25 03:57:35;;;;;;;2.38;1.50;;;8.60;65.70;;;;;;4812662;29;20039;-74
2020/12/25 04:00:00;;;;;;;1.35;1.13;;;8.60;65.80;;;;;;4798804;29;20048;-73
2020/12/25 04:02:26;;;;;;;2.05;1.60;;;8.60;65.40;;;;;;4815285;29;20027;-74
2020/12/25 04:04:52;;;;;;;3.05;1.63;;;8.60;65.60;;;;;;4815752;29;20058;-74
2020/12/25 04:07:18;;;;;;;2.53;1.58;;;8.60;65.70;;;;;;4815641;29;20037;-73
2020/12/25 04:09:43;;;;;;;2.40;1.80;;;8.50;65.80;;;;;;4815481;29;20218;-73
2020/12/25 04:12:09;;;;;;;2.38;1.50;;;8.60;66.10;;;;;;4816305;29;20033;-74
2020/12/25 04:14:35;;;;;;;2.67;1.67;;;8.40;66.00;;;;;;4815442;29;20330;-74
2020/12/25 04:17:01;;;;;;;2.20;1.55;;;8.50;66.20;;;;;;4816420;29;20026;-74
2020/12/25 04:19:26;;;;;;;2.70;1.73;;;8.40;66.40;;;;;;4816470;29;20042;-74
2020/12/25 04:21:52;;;;;;;2.05;1.40;;;8.30;66.50;;;;;;4816346;29;20090;-74
2020/12/25 04:24:18;;;;;;;2.28;1.42;;;8.30;66.40;;;;;;4815103;29;20034;-74
2020/12/25 04:26:48;;;;;;;2.35;1.35;;;8.30;66.30;;;;;;4816209;29;20027;-74
2020/12/25 04:29:14;;;;;;;1.95;1.30;;;8.40;66.40;;;;;;4814967;29;20058;-74
2020/12/25 04:31:40;;;;;;;2.20;1.40;;;8.40;66.30;;;;;;4816080;29;20022;-74
2020/12/25 04:34:06;;;;;;;3.45;1.65;;;8.40;66.30;;;;;;4799971;29;20083;-73
2020/12/25 04:36:32;;;;;;;1.48;1.10;;;8.40;66.00;;;;;;4815053;29;20031;-74
2020/12/25 04:38:58;;;;;;;2.08;1.52;;;8.40;66.40;;;;;;4816027;29;20365;-74
2020/12/25 04:41:24;;;;;;;1.80;1.30;;;8.40;66.50;;;;;;4815983;29;20082;-73
2020/12/25 04:43:51;;;;;;;1.75;1.30;;;8.50;66.30;;;;;;4815949;29;20210;-74
2020/12/25 04:46:17;;;;;;;2.22;1.58;;;8.50;66.30;;;;;;4814644;29;20632;-74
2020/12/25 04:48:44;;;;;;;1.85;1.52;;;8.50;66.30;;;;;;4816091;29;20038;-74
2020/12/25 04:51:10;;;;;;;5.20;1.85;;;8.60;65.90;;;;;;4816084;29;20302;-74
2020/12/25 04:53:36;;;;;;;1.73;1.40;;;8.60;65.80;;;;;;4814820;29;20079;-74
2020/12/25 04:56:02;;;;;;;1.90;1.40;;;8.70;65.90;;;;;;4815571;29;20031;-73
2020/12/25 04:58:28;;;;;;;3.30;1.80;;;8.70;65.70;;;;;;4815636;29;20035;-74
2020/12/25 05:01:09;;;;;;;1.55;1.45;;;8.80;65.70;;;;;;4814267;29;20030;-73
2020/12/25 05:03:35;;;;;;;2.00;1.35;;;8.80;65.50;;;;;;4815684;29;20027;-74
2020/12/25 05:06:09;;;;;;;2.22;1.35;;;8.80;65.50;;;;;;4815854;29;20031;-74
2020/12/25 05:08:42;;;;;;;1.80;1.40;;;8.80;65.20;;;;;;4829812;29;20222;-73
2020/12/25 05:11:09;;;;;;;2.45;1.75;;;8.80;65.00;;;;;;4815698;29;20070;-73
2020/12/25 05:13:43;;;;;;;2.95;1.60;;;8.80;65.30;;;;;;4814562;29;20226;-74
2020/12/25 05:16:09;;;;;;;2.80;1.58;;;8.80;65.50;;;;;;4815543;29;20027;-73
2020/12/25 05:18:37;;;;;;;2.22;1.70;;;8.70;65.20;;;;;;4814450;29;20084;-73
2020/12/25 05:21:09;;;;;;;3.90;2.28;;;8.70;65.60;;;;;;4814602;29;20034;-73
2020/12/25 05:23:37;;;;;;;2.45;1.63;;;8.70;65.80;;;;;;4815947;29;20095;-73
2020/12/25 05:26:05;;;;;;;2.67;1.65;;;8.70;65.90;;;;;;4818084;29;20345;-73
2020/12/25 05:28:35;;;;;;;2.33;1.77;;;8.70;65.90;;;;;;4818069;29;20030;-73
2020/12/25 05:31:02;;;;;;;2.00;1.67;;;8.60;66.00;;;;;;4818157;29;20026;-73
2020/12/25 05:33:27;;;;;;;2.15;1.60;;;8.60;66.30;;;;;;4819155;29;20039;-73
2020/12/25 05:35:55;;;;;;;2.22;1.58;;;8.70;66.10;;;;;;4833074;29;20079;-73
2020/12/25 05:38:27;;;;;;;2.67;1.70;;;8.60;66.70;;;;;;4817852;29;20179;-73
2020/12/25 05:40:53;;;;;;;3.80;2.05;;;8.70;66.20;;;;;;4819007;29;20041;-73
2020/12/25 05:43:19;;;;;;;2.23;1.70;;;8.70;66.20;;;;;;4817806;29;20019;-73
2020/12/25 05:45:45;;;;;;;5.40;1.88;;;8.70;66.10;;;;;;4818638;29;20299;-73
2020/12/25 05:48:12;;;;;;;1.60;1.33;;;8.70;66.00;;;;;;4818920;29;20039;-73
2020/12/25 05:50:38;;;;;;;2.20;1.57;;;8.60;66.00;;;;;;4817909;29;20041;-73
2020/12/25 05:53:05;;;;;;;2.80;1.98;;;8.60;66.40;;;;;;4818777;29;20350;-73
2020/12/25 05:55:31;;;;;;;2.30;1.73;;;8.70;66.20;;;;;;4817743;29;20091;-73
2020/12/25 05:57:58;;;;;;;2.85;1.55;;;8.60;66.20;;;;;;4818762;29;20031;-73
2020/12/25 06:00:26;;;;;;;6.40;3.60;;;8.60;66.30;;;;;;4818690;29;20044;-73
2020/12/25 06:02:53;;;;;;;10.48;4.95;;;8.60;66.20;;;;;;4818622;29;20027;-73
2020/12/25 06:05:21;;;;;;;60.75;28.02;;;8.60;66.30;;;;;;4818839;29;20054;-74
2020/12/25 06:07:48;;;;;;;34.20;16.83;;;8.50;66.40;;;;;;4802564;29;20080;-73
2020/12/25 06:10:19;;;;;;;14.10;7.70;;;8.60;66.50;;;;;;4817420;29;20478;-74
2020/12/25 06:12:45;;;;;;;6.38;4.00;;;8.60;66.40;;;;;;4818543;29;20035;-73
2020/12/25 06:15:17;;;;;;;5.68;2.53;;;8.50;66.20;;;;;;4832269;29;20111;-73
2020/12/25 06:18:14;;;;;;;2.65;1.63;;;8.60;66.60;;;;;;4800394;29;20337;-73
2020/12/25 06:20:51;;;;;;;5.70;1.77;;;8.60;66.40;;;;;;4798302;30;20043;-73
2020/12/25 06:23:17;;;;;;;2.80;1.77;;;8.50;66.40;;;;;;4798553;30;20050;-76
2020/12/25 06:25:43;;;;;;;1.80;1.50;;;8.60;66.50;;;;;;4800986;29;20284;-74
2020/12/25 06:28:09;;;;;;;3.50;2.00;;;8.50;66.50;;;;;;4801377;29;20330;-73
2020/12/25 06:30:35;;;;;;;2.42;1.60;;;8.50;66.90;;;;;;4816263;29;20087;-73
2020/12/25 06:33:01;;;;;;;2.73;1.80;;;8.60;66.90;;;;;;4816367;29;20128;-73
2020/12/25 06:35:34;;;;;;;1.70;1.40;;;8.60;66.50;;;;;;4815591;29;20299;-73
2020/12/25 06:38:15;;;;;;;2.47;1.95;;;8.60;66.70;;;;;;4816300;29;20194;-73
2020/12/25 06:40:42;;;;;;;4.35;1.83;;;8.60;66.80;;;;;;4801186;29;20027;-73
2020/12/25 06:43:13;;;;;;;2.33;1.50;;;8.60;66.70;;;;;;4816246;29;20310;-73
2020/12/25 06:45:38;;;;;;;4.30;2.03;;;8.40;66.90;;;;;;4813002;29;20272;-74
2020/12/25 06:48:18;;;;;;;6.03;2.00;;;8.40;66.90;;;;;;4768326;30;20037;-73
2020/12/25 06:50:52;;;;;;;2.53;1.77;;;8.40;67.30;;;;;;4797903;30;20339;-73
2020/12/25 06:53:41;;;;;;;4.05;1.90;;;8.40;67.40;;;;;;4797855;30;20039;-73
2020/12/25 06:56:18;;;;;;;3.53;2.28;;;8.40;67.50;;;;;;4770518;29;20238;-74
2020/12/25 06:58:49;;;;;;;2.17;1.58;;;8.30;67.40;;;;;;4798561;29;20238;-74
2020/12/25 07:01:18;;;;;;;3.60;2.17;;;8.40;67.60;;;;;;4817472;29;20050;-73
2020/12/25 07:03:43;;;;;;;4.05;2.33;;;8.50;67.40;;;;;;4822115;29;20035;-74
2020/12/25 07:06:11;;;;;;;2.88;2.13;;;8.50;67.00;;;;;;4808320;29;20077;-74
2020/12/25 07:08:56;;;;;;;3.17;2.10;;;8.40;67.40;;;;;;4823549;29;20030;-74
2020/12/25 07:11:21;;;;;;;2.85;1.90;;;8.50;67.20;;;;;;4820558;29;20026;-74
2020/12/25 07:13:47;;;;;;;2.90;2.10;;;8.50;67.10;;;;;;4826446;29;20041;-74
2020/12/25 07:16:13;;;;;;;3.83;2.47;;;8.60;66.90;;;;;;4823870;29;20067;-73
2020/12/25 07:18:40;;;;;;;3.30;2.13;;;8.50;66.90;;;;;;4826505;29;20046;-74
2020/12/25 07:21:09;;;;;;;3.20;1.98;;;8.50;66.90;;;;;;4830336;29;20314;-74
2020/12/25 07:23:45;;;;;;;2.72;2.05;;;8.60;66.90;;;;;;4834441;29;20034;-73
2020/12/25 07:26:12;;;;;;;4.63;2.80;;;8.50;66.70;;;;;;4828126;29;20093;-74
2020/12/25 07:28:39;;;;;;;3.47;2.35;;;8.60;66.70;;;;;;4816129;29;20516;-73
2020/12/25 07:31:05;;;;;;;5.65;2.40;;;8.60;66.90;;;;;;4820159;29;20029;-74
2020/12/25 07:33:31;;;;;;;3.20;2.33;;;8.70;67.00;;;;;;4826727;29;20080;-74
2020/12/25 07:35:58;;;;;;;2.45;1.88;;;8.70;67.00;;;;;;4824104;29;20035;-73
2020/12/25 07:38:25;;;;;;;3.80;2.58;;;8.70;66.70;;;;;;4824002;29;20070;-74
2020/12/25 07:40:51;;;;;;;3.22;2.22;;;8.80;66.60;;;;;;4823565;29;20035;-74
2020/12/25 07:43:17;;;;;;;2.33;2.03;;;8.80;66.80;;;;;;4845640;29;20023;-74
2020/12/25 07:45:43;;;;;;;3.40;2.63;;;8.70;66.40;;;;;;4823462;29;20034;-74
2020/12/25 07:48:09;;;;;;;4.28;2.50;;;8.80;67.20;;;;;;4822724;29;20087;-74
2020/12/25 07:50:40;;;;;;;6.97;2.50;;;8.90;66.40;;;;;;4819458;29;20031;-74
2020/12/25 07:53:10;;;;;;;3.78;2.40;;;8.90;66.10;;;;;;4825129;29;20057;-74
2020/12/25 07:55:36;;;;;;;4.35;2.65;;;8.90;66.20;;;;;;4817775;29;20026;-74
2020/12/25 07:58:02;;;;;;;4.43;2.97;;;9.00;66.10;;;;;;4826359;29;20061;-74
2020/12/25 08:00:30;;;;;;;4.80;2.78;;;8.90;65.90;;;;;;4847150;29;20114;-73
2020/12/25 08:02:57;;;;;;;3.70;2.47;;;8.90;66.20;;;;;;4821677;29;20020;-74
2020/12/25 08:05:22;;;;;;;;;;;8.90;66.20;;;;;;4825720;29;20075;-75
2020/12/25 08:07:51;;;;;;;4.80;2.60;;;8.90;66.00;;;;;;4819135;29;19909;-74
2020/12/25 08:10:18;;;;;;;4.57;2.70;;;9.00;66.00;;;;;;4815382;29;20042;-74
2020/12/25 08:12:48;;;;;;;4.18;2.78;;;9.00;65.90;;;;;;4816572;29;20030;-74
2020/12/25 08:15:14;;;;;;;3.97;2.83;;;9.00;66.00;;;;;;4819272;29;20187;-74
2020/12/25 08:17:40;;;;;;;4.15;2.90;;;9.00;65.90;;;;;;4825501;29;20066;-74
2020/12/25 08:20:06;;;;;;;4.00;2.80;;;9.10;66.00;;;;;;4829962;29;20366;-74
2020/12/25 08:22:32;;;;;;;4.38;2.40;;;9.20;65.90;;;;;;4825238;29;20284;-74
2020/12/25 08:24:58;;;;;;;3.88;2.45;;;9.20;65.70;;;;;;4823068;29;20018;-73
2020/12/25 08:27:31;;;;;;;3.33;2.55;;;9.20;65.50;;;;;;4840849;29;20030;-74
2020/12/25 08:30:03;;;;;;;4.97;2.78;;;9.30;65.20;;;;;;4819027;29;20102;-75
2020/12/25 08:32:30;;;;;;;4.25;2.58;;;9.30;65.20;;;;;;4823912;29;20349;-74
2020/12/25 08:35:19;;;;;;;5.63;2.50;;;9.30;65.00;;;;;;4822903;29;20093;-74
2020/12/25 08:38:11;;;;;;;4.07;2.70;;;9.40;64.70;;;;;;4820393;29;20035;-74
2020/12/25 08:40:37;;;;;;;3.72;2.08;;;9.30;64.80;;;;;;4843928;29;20234;-75
2020/12/25 08:43:09;;;;;;;3.55;2.58;;;9.30;65.00;;;;;;4840013;29;20101;-74
2020/12/25 08:45:36;;;;;;;5.57;2.30;;;9.30;65.00;;;;;;4826536;29;20151;-74
2020/12/25 08:48:09;;;;;;;5.30;2.72;;;9.30;64.70;;;;;;4823665;29;20037;-75
2020/12/25 08:50:35;;;;;;;3.03;2.30;;;9.30;64.80;;;;;;4824142;29;20029;-74
2020/12/25 08:53:17;;;;;;;3.30;2.60;;;9.40;64.60;;;;;;4838057;29;20038;-75
2020/12/25 08:55:44;;;;;;;4.80;2.72;;;9.30;64.90;;;;;;4825198;29;20221;-74
2020/12/25 08:58:10;;;;;;;4.20;2.70;;;9.40;64.60;;;;;;4839008;29;20054;-74
2020/12/25 09:00:36;;;;;;;3.72;2.60;;;9.50;64.40;;;;;;4825077;29;20070;-75
2020/12/25 09:03:02;;;;;;;3.83;2.97;;;9.50;64.40;;;;;;4809580;29;20099;-74
2020/12/25 09:05:29;;;;;;;4.03;2.50;;;9.30;64.30;;;;;;4823275;29;20061;-74
2020/12/25 09:07:55;;;;;;;3.63;2.42;;;9.40;64.50;;;;;;4824455;29;20026;-74
2020/12/25 09:10:21;;;;;;;4.13;3.25;;;9.50;64.50;;;;;;4829953;29;20054;-74
2020/12/25 09:12:47;;;;;;;4.43;2.90;;;9.50;64.20;;;;;;4849751;29;20074;-74
2020/12/25 09:15:13;;;;;;;6.30;3.70;;;9.40;64.10;;;;;;4828175;29;20023;-75
2020/12/25 09:17:38;;;;;;;4.05;2.90;;;9.50;64.60;;;;;;4806760;29;20039;-74
2020/12/25 09:20:04;;;;;;;3.70;2.67;;;9.50;64.10;;;;;;4803449;29;20050;-75
2020/12/25 09:22:30;;;;;;;4.20;2.80;;;9.50;63.90;;;;;;4804550;29;20053;-75
2020/12/25 09:24:56;;;;;;;4.05;2.75;;;9.50;63.80;;;;;;4815118;29;20333;-74
2020/12/25 09:27:21;;;;;;;3.97;2.63;;;9.50;64.40;;;;;;4813915;29;20033;-74
2020/12/25 09:29:47;;;;;;;4.60;3.05;;;9.70;64.30;;;;;;4818937;29;20033;-74
2020/12/25 09:32:13;;;;;;;5.50;3.17;;;9.70;63.90;;;;;;4809666;29;20025;-74
2020/12/25 09:34:38;;;;;;;3.70;2.90;;;9.70;63.60;;;;;;4837230;29;20038;-75
2020/12/25 09:37:04;;;;;;;3.67;2.97;;;9.60;63.60;;;;;;4821678;29;20031;-74
2020/12/25 09:39:30;;;;;;;3.65;2.90;;;9.60;63.80;;;;;;4821333;29;20038;-75
2020/12/25 09:41:56;;;;;;;4.07;3.03;;;9.50;64.10;;;;;;4826823;29;20058;-74
2020/12/25 09:44:21;;;;;;;3.83;2.85;;;9.40;63.50;;;;;;4832373;29;20053;-75
2020/12/25 09:46:47;;;;;;;3.25;2.70;;;9.40;64.20;;;;;;4816774;29;20042;-75
2020/12/25 09:49:16;;;;;;;3.58;2.40;;;9.50;64.00;;;;;;4823983;29;20041;-75
2020/12/25 09:51:41;;;;;;;5.15;3.25;;;9.50;64.30;;;;;;4830960;29;20038;-75
2020/12/25 09:54:07;;;;;;;5.22;3.25;;;9.60;64.20;;;;;;4832972;29;20030;-75
2020/12/25 09:56:33;;;;;;;3.47;2.63;;;9.70;64.10;;;;;;4822469;29;20102;-75
2020/12/25 09:58:58;;;;;;;4.10;2.60;;;9.60;63.70;;;;;;4813572;29;20110;-75
2020/12/25 10:01:24;;;;;;;5.55;3.25;;;9.70;64.20;;;;;;4813741;29;20027;-74
2020/12/25 10:03:50;;;;;;;5.65;4.22;;;9.70;64.00;;;;;;4822360;29;20041;-75
2020/12/25 10:06:19;;;;;;;6.35;3.47;;;9.90;64.10;;;;;;4822243;29;20049;-75
2020/12/25 10:08:45;;;;;;;6.45;2.95;;;10.00;63.80;;;;;;4819058;29;20304;-75
2020/12/25 10:11:11;;;;;;;6.85;3.22;;;9.90;63.50;;;;;;4825894;29;20038;-75
2020/12/25 10:13:37;;;;;;;5.15;3.05;;;9.80;63.90;;;;;;4832175;29;20062;-75
2020/12/25 10:16:03;;;;;;;5.57;3.30;;;9.80;64.10;;;;;;4823329;29;20023;-75
2020/12/25 10:18:28;;;;;;;5.15;3.72;;;9.70;64.40;;;;;;4801813;29;20080;-74
2020/12/25 10:20:54;;;;;;;5.65;3.92;;;9.70;64.70;;;;;;4818481;29;20023;-75
2020/12/25 10:23:20;;;;;;;5.50;3.88;;;9.80;64.90;;;;;;4808202;29;20348;-74
2020/12/25 10:25:45;;;;;;;6.05;4.43;;;9.70;65.30;;;;;;4813777;29;20027;-74
2020/12/25 10:28:11;;;;;;;5.35;3.35;;;9.80;65.20;;;;;;4817834;29;20042;-74
2020/12/25 10:30:37;;;;;;;4.45;3.03;;;9.80;64.40;;;;;;4818489;29;20222;-75
2020/12/25 10:33:03;;;;;;;5.00;3.70;;;9.80;65.00;;;;;;4807748;29;20061;-75
2020/12/25 10:35:28;;;;;;;4.07;3.22;;;9.80;65.40;;;;;;4798923;29;20033;-74
2020/12/25 10:37:54;;;;;;;4.28;3.00;;;9.60;65.30;;;;;;4818111;29;20045;-75
2020/12/25 10:40:21;;;;;;;4.32;3.58;;;9.70;65.30;;;;;;4830506;29;20067;-75
2020/12/25 10:42:47;;;;;;;4.57;3.58;;;9.60;65.30;;;;;;4818058;29;20022;-74
2020/12/25 10:45:13;;;;;;;6.20;3.88;;;9.60;65.30;;;;;;4832055;29;20251;-74
2020/12/25 10:47:39;;;;;;;4.53;3.50;;;9.60;66.50;;;;;;4817820;29;20118;-74
2020/12/25 10:50:04;;;;;;;5.32;3.67;;;9.70;65.60;;;;;;4816992;29;20382;-74
2020/12/25 10:52:30;;;;;;;5.00;3.78;;;9.70;65.40;;;;;;4817906;29;20058;-75
2020/12/25 10:54:56;;;;;;;5.30;3.92;;;9.70;65.50;;;;;;4817888;29;20031;-74
2020/12/25 10:57:22;;;;;;;4.47;3.42;;;9.70;65.70;;;;;;4801718;29;20049;-74
2020/12/25 10:59:50;;;;;;;5.75;3.58;;;9.50;65.50;;;;;;4817952;29;20023;-74
2020/12/25 11:02:16;;;;;;;4.30;3.47;;;9.60;66.00;;;;;;4817547;29;20045;-75
2020/12/25 11:04:42;;;;;;;6.32;3.95;;;9.70;65.60;;;;;;4815958;29;20031;-74
2020/12/25 11:07:08;;;;;;;5.32;3.72;;;9.70;65.50;;;;;;4817563;29;20077;-75
2020/12/25 11:09:33;;;;;;;4.25;3.40;;;9.50;65.90;;;;;;4816685;29;20084;-74
2020/12/25 11:11:59;;;;;;;5.25;3.45;;;9.50;66.20;;;;;;4816337;29;20045;-74
2020/12/25 11:14:25;;;;;;;9.48;4.57;;;9.60;66.30;;;;;;4816446;29;20406;-74
2020/12/25 11:16:50;;;;;;;4.93;3.72;;;9.50;66.70;;;;;;4817472;29;20031;-74
2020/12/25 11:19:16;;;;;;;5.45;3.58;;;9.60;66.80;;;;;;4817404;29;20071;-75
2020/12/25 11:21:42;;;;;;;6.25;3.60;;;9.70;66.60;;;;;;4815788;29;20023;-74
2020/12/25 11:24:08;;;;;;;5.82;4.18;;;9.60;66.30;;;;;;4817453;29;20035;-73
2020/12/25 11:26:35;;;;;;;5.38;3.70;;;9.50;66.50;;;;;;4817532;29;20038;-74
2020/12/25 11:29:06;;;;;;;4.53;3.67;;;9.60;67.10;;;;;;4817349;29;20057;-74
2020/12/25 11:31:33;;;;;;;4.75;4.00;;;9.60;67.00;;;;;;4817622;29;20098;-74
2020/12/25 11:33:59;;;;;;;4.90;3.88;;;9.50;67.50;;;;;;4820081;29;20035;-74
2020/12/25 11:36:32;;;;;;;6.22;4.20;;;9.50;67.50;;;;;;4820459;29;20033;-74
2020/12/25 11:38:57;;;;;;;5.40;3.90;;;9.50;67.80;;;;;;4816303;29;20046;-74
2020/12/25 11:41:24;;;;;;;5.00;3.95;;;9.60;68.00;;;;;;4816221;29;20052;-74
2020/12/25 11:43:52;;;;;;;5.75;4.20;;;9.40;67.90;;;;;;4815960;29;20038;-74
2020/12/25 11:46:18;;;;;;;5.97;4.43;;;9.30;68.60;;;;;;4815507;29;20057;-74
2020/12/25 11:48:45;;;;;;;7.00;4.70;;;9.30;68.60;;;;;;4816132;29;20080;-74
2020/12/25 11:51:22;;;;;;;7.93;4.97;;;9.20;68.90;;;;;;4816146;29;20110;-74
2020/12/25 11:53:48;;;;;;;6.53;4.40;;;9.20;69.20;;;;;;4817202;29;20038;-74
2020/12/25 11:56:22;;;;;;;5.82;4.60;;;9.20;69.40;;;;;;4815959;29;20037;-74
2020/12/25 11:58:48;;;;;;;5.63;4.55;;;9.30;69.20;;;;;;4815368;29;20035;-74
2020/12/25 12:01:15;;;;;;;8.53;4.30;;;9.30;69.40;;;;;;4815773;29;20027;-74
2020/12/25 12:03:41;;;;;;;7.38;4.47;;;9.30;69.40;;;;;;4799942;29;20031;-75
2020/12/25 12:06:09;;;;;;;6.73;5.03;;;9.40;69.30;;;;;;4816246;29;20030;-74
2020/12/25 12:08:35;;;;;;;6.55;4.93;;;9.30;70.30;;;;;;4819374;29;20046;-75
2020/12/25 12:11:00;;;;;;;6.40;4.80;;;9.30;70.40;;;;;;4816783;29;20098;-75
2020/12/25 12:13:26;;;;;;;6.53;4.60;;;9.30;70.40;;;;;;4800671;29;20322;-75
2020/12/25 12:15:52;;;;;;;7.65;5.57;;;9.30;70.50;;;;;;4822306;29;20034;-75
2020/12/25 12:18:18;;;;;;;6.18;4.15;;;9.20;71.00;;;;;;4823700;29;20241;-75
2020/12/25 12:20:43;;;;;;;7.40;5.15;;;9.30;71.10;;;;;;4826193;29;20032;-75
2020/12/25 12:23:09;;;;;;;6.53;4.97;;;9.40;71.00;;;;;;4802212;29;20031;-75
2020/12/25 12:25:35;;;;;;;6.35;4.78;;;9.40;70.70;;;;;;4828212;29;20031;-76
2020/12/25 12:28:01;;;;;;;9.77;6.18;;;9.50;70.70;;;;;;4800449;29;20203;-76
2020/12/25 12:30:27;;;;;;;8.20;5.13;;;9.40;71.10;;;;;;4816689;29;20051;-77
2020/12/25 12:32:53;;;;;;;6.32;5.18;;;9.40;71.00;;;;;;4816440;29;20040;-76
2020/12/25 12:35:18;;;;;;;7.38;5.25;;;9.40;71.80;;;;;;4815131;29;20085;-76
2020/12/25 12:37:46;;;;;;;7.45;5.20;;;9.30;72.00;;;;;;4815183;29;20042;-77
2020/12/25 12:40:12;;;;;;;7.90;5.82;;;9.40;72.40;;;;;;4815186;29;20031;-77
2020/12/25 12:42:38;;;;;;;8.65;6.00;;;9.40;72.50;;;;;;4815490;29;20042;-77
2020/12/25 12:45:06;;;;;;;6.43;5.13;;;9.50;72.80;;;;;;4815379;29;20030;-77
2020/12/25 12:47:32;;;;;;;6.15;4.82;;;9.40;72.60;;;;;;4798153;29;20047;-76
2020/12/25 12:49:58;;;;;;;9.27;5.00;;;9.30;72.60;;;;;;4798109;29;20106;-77
2020/12/25 12:52:24;;;;;;;5.80;4.50;;;9.20;73.20;;;;;;4796800;30;20345;-76
2020/12/25 12:54:49;;;;;;;6.05;4.45;;;9.10;73.60;;;;;;4796960;29;20422;-76
2020/12/25 12:57:15;;;;;;;6.95;4.28;;;9.00;73.90;;;;;;4796929;30;20053;-77
2020/12/25 12:59:41;;;;;;;7.93;4.80;;;8.90;74.30;;;;;;4798032;29;20031;-76
2020/12/25 13:02:07;;;;;;;5.63;4.07;;;8.90;74.30;;;;;;4812525;29;20045;-77
2020/12/25 13:04:33;;;;;;;6.00;4.53;;;9.00;74.70;;;;;;4795523;29;20194;-76
2020/12/25 13:06:58;;;;;;;5.72;4.28;;;8.90;74.30;;;;;;4807300;29;20218;-76
2020/12/25 13:09:24;;;;;;;5.97;3.58;;;8.90;75.20;;;;;;4834244;29;20029;-76
2020/12/25 13:11:50;;;;;;;6.75;4.22;;;8.90;74.80;;;;;;4848389;29;20142;-76
2020/12/25 13:14:16;;;;;;;5.28;4.20;;;8.90;74.90;;;;;;4848249;29;20311;-76
2020/12/25 13:16:41;;;;;;;4.70;3.80;;;9.00;74.30;;;;;;4822148;29;20133;-76
2020/12/25 13:19:07;;;;;;;4.55;3.60;;;9.00;74.60;;;;;;4815715;29;20313;-74
2020/12/25 13:21:33;;;;;;;6.25;4.28;;;9.00;74.30;;;;;;4815925;29;20027;-76
2020/12/25 13:23:59;;;;;;;6.38;4.47;;;9.00;74.40;;;;;;4799554;29;20033;-75
2020/12/25 13:26:25;;;;;;;6.05;3.90;;;9.00;74.40;;;;;;4796658;29;20028;-75
2020/12/25 13:28:52;;;;;;;6.20;4.20;;;9.20;74.30;;;;;;4796934;29;20027;-75
2020/12/25 13:31:18;;;;;;;6.68;4.22;;;9.10;73.70;;;;;;4815230;29;20074;-75
2020/12/25 13:33:45;;;;;;;6.20;4.03;;;9.10;73.70;;;;;;4847964;29;20042;-75
2020/12/25 13:36:12;;;;;;;5.82;3.80;;;9.10;73.90;;;;;;4847708;29;20263;-75
2020/12/25 13:38:38;;;;;;;5.05;3.58;;;9.10;74.10;;;;;;4833542;29;20043;-75
2020/12/25 13:41:09;;;;;;;7.82;5.13;;;9.10;73.90;;;;;;4833708;29;20022;-75
2020/12/25 13:43:35;;;;;;;6.88;4.32;;;9.00;74.30;;;;;;4833696;29;20018;-75
2020/12/25 13:46:01;;;;;;;6.18;4.32;;;9.00;74.40;;;;;;4844476;29;20061;-75
2020/12/25 13:48:28;;;;;;;6.90;4.80;;;9.00;74.30;;;;;;4802354;29;20337;-75
2020/12/25 13:50:54;;;;;;;7.10;4.80;;;9.00;74.40;;;;;;4818280;29;20038;-75
2020/12/25 13:53:23;;;;;;;6.77;4.33;;;9.00;74.80;;;;;;4817815;29;20105;-75
2020/12/25 13:55:49;;;;;;;8.10;4.13;;;9.00;75.00;;;;;;4818946;29;20535;-74
2020/12/25 13:58:15;;;;;;;7.28;4.13;;;8.90;74.90;;;;;;4819109;29;20023;-76
2020/12/25 14:00:41;;;;;;;5.85;4.30;;;9.00;75.10;;;;;;4817356;29;20252;-76
2020/12/25 14:03:06;;;;;;;7.43;5.15;;;8.90;75.60;;;;;;4802742;29;20057;-75
2020/12/25 14:05:32;;;;;;;7.55;4.32;;;9.00;75.40;;;;;;4818416;29;20023;-76
2020/12/25 14:07:58;;;;;;;5.65;4.45;;;9.00;75.70;;;;;;4822156;29;20121;-75
2020/12/25 14:10:24;;;;;;;7.65;5.25;;;9.00;75.70;;;;;;4826120;29;20255;-76
2020/12/25 14:12:50;;;;;;;6.55;4.50;;;9.10;75.60;;;;;;4847272;29;20027;-75
2020/12/25 14:15:16;;;;;;;6.18;4.70;;;9.10;75.20;;;;;;4811551;29;20034;-75
2020/12/25 14:17:42;;;;;;;5.35;4.40;;;9.20;75.20;;;;;;4826137;29;20049;-75
2020/12/25 14:20:08;;;;;;;6.67;4.77;;;9.20;74.80;;;;;;4831970;29;20074;-76
2020/12/25 14:22:34;;;;;;;6.53;4.60;;;9.10;74.70;;;;;;4826786;29;20038;-75
2020/12/25 14:25:00;;;;;;;8.40;4.38;;;9.10;75.00;;;;;;4819283;29;20019;-75
2020/12/25 14:27:26;;;;;;;6.53;4.57;;;9.10;75.30;;;;;;4823812;29;20030;-75
2020/12/25 14:29:52;;;;;;;5.85;4.70;;;8.90;75.70;;;;;;4826386;29;20205;-75
2020/12/25 14:32:18;;;;;;;5.18;4.35;;;9.10;75.50;;;;;;4825051;29;20017;-75
2020/12/25 14:34:44;;;;;;;4.55;3.83;;;9.10;75.50;;;;;;4824122;29;20066;-75
2020/12/25 14:37:09;;;;;;;6.35;4.53;;;9.00;75.30;;;;;;4821057;29;20083;-75
2020/12/25 14:39:35;;;;;;;8.00;4.57;;;9.00;75.60;;;;;;4822009;29;20326;-75
2020/12/25 14:42:02;;;;;;;6.18;4.45;;;9.00;75.90;;;;;;4821526;29;20018;-75
2020/12/25 14:44:29;;;;;;;;;;;8.90;75.90;;;;;;4824779;29;20333;-76
2020/12/25 14:46:54;;;;;;;8.05;5.88;;;8.90;76.00;;;;;;4824230;29;20204;-75
2020/12/25 14:49:20;;;;;;;9.32;6.38;;;9.00;75.90;;;;;;4824713;29;20035;-75
2020/12/25 14:51:47;;;;;;;7.20;5.20;;;9.00;75.80;;;;;;4823958;29;20038;-75
2020/12/25 14:54:17;;;;;;;7.32;5.60;;;9.00;75.70;;;;;;4823666;29;20030;-75
2020/12/25 14:56:43;;;;;;;6.85;4.97;;;8.90;76.20;;;;;;4823562;29;20041;-75
2020/12/25 14:59:09;;;;;;;5.93;5.07;;;8.70;76.30;;;;;;4815650;29;20105;-75
2020/12/25 15:01:36;;;;;;;6.85;4.78;;;8.80;76.40;;;;;;4824753;29;20476;-75
2020/12/25 15:04:03;;;;;;;12.10;6.53;;;8.70;76.40;;;;;;4823148;29;20030;-75
2020/12/25 15:06:28;;;;;;;17.30;8.82;;;8.70;76.40;;;;;;4818041;29;20023;-75
2020/12/25 15:08:56;;;;;;;14.32;9.18;;;8.70;76.30;;;;;;4827200;29;20061;-75
2020/12/25 15:11:22;;;;;;;8.02;5.40;;;8.80;76.30;;;;;;4818754;29;20042;-74
2020/12/25 15:13:48;;;;;;;8.63;5.28;;;8.80;76.20;;;;;;4817364;29;20081;-76
2020/12/25 15:16:18;;;;;;;7.18;4.97;;;8.60;76.10;;;;;;4810963;29;20030;-75
2020/12/25 15:18:44;;;;;;;5.57;4.57;;;8.70;76.10;;;;;;4804357;29;20222;-74
2020/12/25 15:21:10;;;;;;;8.87;4.00;;;8.70;75.80;;;;;;4788838;29;20103;-75
2020/12/25 15:23:36;;;;;;;4.00;3.33;;;8.80;75.50;;;;;;4809498;29;20065;-75
2020/12/25 15:26:03;;;;;;;6.28;4.55;;;8.80;75.50;;;;;;4795177;29;20034;-75
2020/12/25 15:28:29;;;;;;;6.03;4.25;;;8.70;75.40;;;;;;4809238;29;20051;-74
2020/12/25 15:30:55;;;;;;;4.95;3.60;;;8.70;75.50;;;;;;4810072;29;20042;-74
2020/12/25 15:33:21;;;;;;;4.88;3.70;;;8.60;75.50;;;;;;4816727;29;20232;-75
2020/12/25 15:35:49;;;;;;;5.60;3.70;;;8.60;75.40;;;;;;4830806;29;20058;-75
2020/12/25 15:38:24;;;;;;;7.47;3.00;;;8.60;75.40;;;;;;4816619;29;20035;-74
2020/12/25 15:40:50;;;;;;;6.15;3.83;;;8.60;75.00;;;;;;4816627;29;20785;-75
2020/12/25 15:43:16;;;;;;;4.38;3.30;;;8.70;74.70;;;;;;4821763;29;20086;-74
2020/12/25 15:45:42;;;;;;;4.68;3.40;;;8.70;74.50;;;;;;4821644;29;20035;-74
2020/12/25 15:48:08;;;;;;;4.47;2.97;;;8.70;74.20;;;;;;4816215;29;20049;-74
2020/12/25 15:50:38;;;;;;;3.80;2.87;;;8.60;74.10;;;;;;4815154;29;20027;-74
2020/12/25 15:53:04;;;;;;;4.43;2.90;;;8.50;74.00;;;;;;4815188;29;20096;-74
2020/12/25 15:55:30;;;;;;;4.15;2.83;;;8.50;74.30;;;;;;4817243;29;20026;-74
2020/12/25 15:57:56;;;;;;;4.80;2.80;;;8.50;74.40;;;;;;4814970;29;20782;-74
2020/12/25 16:00:22;;;;;;;4.85;2.65;;;8.40;74.40;;;;;;4804085;29;20056;-75
2020/12/25 16:02:49;;;;;;;4.15;3.10;;;8.40;74.70;;;;;;4815507;29;20023;-74
2020/12/25 16:05:19;;;;;;;4.40;3.10;;;8.50;74.70;;;;;;4816307;29;20089;-74
2020/12/25 16:07:46;;;;;;;6.97;4.20;;;8.40;75.00;;;;;;4814698;29;20030;-75
2020/12/25 16:10:12;;;;;;;4.50;3.42;;;8.40;75.30;;;;;;4829366;29;20061;-75
2020/12/25 16:12:39;;;;;;;5.85;3.88;;;8.40;75.50;;;;;;4811084;29;20050;-74
2020/12/25 16:15:06;;;;;;;4.27;3.50;;;8.30;75.50;;;;;;4811985;29;20163;-74
2020/12/25 16:17:32;;;;;;;7.20;3.75;;;8.30;75.40;;;;;;4818550;29;20267;-74
2020/12/25 16:19:58;;;;;;;6.13;4.28;;;8.30;75.70;;;;;;4815797;29;20035;-75
2020/12/25 16:22:27;;;;;;;7.18;4.40;;;8.30;75.90;;;;;;4821438;29;20041;-75
2020/12/25 16:24:52;;;;;;;5.80;3.85;;;8.30;75.90;;;;;;4814604;29;20027;-76
2020/12/25 16:27:19;;;;;;;10.15;3.55;;;8.20;75.90;;;;;;4814545;29;20088;-77
2020/12/25 16:29:44;;;;;;;4.60;3.40;;;8.20;76.10;;;;;;4810357;29;20095;-76
2020/12/25 16:32:10;;;;;;;5.50;3.78;;;8.30;76.20;;;;;;4813405;29;20144;-76
2020/12/25 16:34:36;;;;;;;5.00;3.80;;;8.30;75.80;;;;;;4829777;29;20035;-76
2020/12/25 16:37:02;;;;;;;6.90;4.07;;;8.40;75.70;;;;;;4810641;29;20035;-76
2020/12/25 16:39:28;;;;;;;5.85;3.70;;;8.30;75.40;;;;;;4800950;29;20064;-77
2020/12/25 16:41:55;;;;;;;4.43;3.43;;;8.20;76.60;;;;;;4815575;29;20035;-76